Time;durP1;ratioP1;P1;durP2;ratioP2;P2;SDS_P1;SDS_P2;PMS_P1;PMS_P2;Temp;Humidity;BMP_temperature;BMP_pressure;BME280_temperature;BME280_humidity;BME280_pressure;Samples;Min_cycle;Max_cycle;Signal;HPM_P1;HPM_P2
2022/03/20 00:00:56;;;;;;;16.10;7.22;;;1.30;73.60;0.60;100960.00;;;;4886342;28;88473;-60
2022/03/20 00:03:24;;;;;;;11.32;7.32;;;1.30;74.10;0.70;100949.00;;;;4885040;28;87475;-60
2022/03/20 00:05:51;;;;;;;12.27;7.60;;;1.30;74.20;0.70;100951.00;;;;4883160;28;87166;-61
2022/03/20 00:08:17;;;;;;;11.65;7.25;;;1.30;74.10;0.70;100943.00;;;;4869827;28;88430;-61
2022/03/20 00:10:49;;;;;;;12.50;6.88;;;1.40;74.50;0.70;100952.00;;;;4888208;28;88384;-61
2022/03/20 00:13:18;;;;;;;13.65;7.63;;;1.30;74.80;0.70;100939.00;;;;4870890;28;87134;-61
2022/03/20 00:15:47;;;;;;;11.40;7.63;;;1.30;75.10;0.70;100941.00;;;;4887157;28;87197;-61
2022/03/20 00:18:16;;;;;;;12.10;7.25;;;1.30;75.10;0.70;100948.00;;;;4867629;28;88699;-61
2022/03/20 00:20:46;;;;;;;11.70;7.10;;;1.30;75.40;0.70;100939.00;;;;4881132;28;87333;-61
2022/03/20 00:23:14;;;;;;;14.00;7.70;;;1.30;75.40;0.70;100940.00;;;;4870927;28;87149;-61
2022/03/20 00:25:44;;;;;;;12.93;7.47;;;1.30;75.60;0.70;100931.00;;;;4868641;28;86459;-61
2022/03/20 00:28:13;;;;;;;13.73;7.18;;;1.30;75.70;0.60;100932.00;;;;4888994;28;87752;-61
2022/03/20 00:30:40;;;;;;;11.45;7.65;;;1.30;76.10;0.60;100927.00;;;;4890003;28;87983;-61
2022/03/20 00:33:07;;;;;;;10.63;7.20;;;1.20;76.10;0.70;100934.00;;;;4888213;28;87916;-61
2022/03/20 00:35:33;;;;;;;12.30;7.65;;;1.30;76.40;0.70;100930.00;;;;4890076;28;87006;-61
2022/03/20 00:37:59;;;;;;;9.65;6.90;;;1.30;76.40;0.70;100924.00;;;;4890538;28;87760;-61
2022/03/20 00:40:28;;;;;;;11.18;6.75;;;1.20;76.10;0.70;100925.00;;;;4895797;28;87346;-64
2022/03/20 00:42:55;;;;;;;9.85;7.07;;;1.30;76.30;0.60;100923.00;;;;4876519;28;87004;-61
2022/03/20 00:45:21;;;;;;;15.13;7.38;;;1.20;76.70;0.60;100921.00;;;;4891130;28;87117;-65
2022/03/20 00:47:48;;;;;;;13.88;7.10;;;1.20;76.70;0.60;100907.00;;;;4891205;28;87772;-65
2022/03/20 00:50:15;;;;;;;10.20;7.30;;;1.20;77.10;0.60;100924.00;;;;4874854;28;87447;-65
2022/03/20 00:52:41;;;;;;;11.02;7.18;;;1.20;77.50;0.60;100907.00;;;;4890361;28;87390;-65
2022/03/20 00:55:08;;;;;;;10.45;7.25;;;1.20;77.50;0.70;100910.00;;;;4886146;28;87584;-65
2022/03/20 00:57:36;;;;;;;11.00;6.93;;;1.30;77.80;0.70;100918.00;;;;4885318;28;88417;-64
2022/03/20 01:00:04;;;;;;;12.15;7.32;;;1.30;77.90;0.70;100924.00;;;;4870878;28;88566;-65
2022/03/20 01:02:45;;;;;;;12.82;7.72;;;1.30;77.70;0.50;100917.00;;;;4885703;28;87054;-65
2022/03/20 01:05:12;;;;;;;13.32;7.05;;;1.10;77.90;0.50;100916.00;;;;4873992;28;87078;-65
2022/03/20 01:07:39;;;;;;;14.10;7.95;;;1.00;78.10;0.40;100907.00;;;;4885612;28;87145;-66
2022/03/20 01:10:07;;;;;;;11.23;6.85;;;1.00;78.50;0.30;100899.00;;;;4894114;28;87568;-65
2022/03/20 01:12:35;;;;;;;13.52;8.07;;;0.90;78.50;0.30;100911.00;;;;4863684;28;87043;-64
2022/03/20 01:15:03;;;;;;;10.65;7.55;;;0.90;79.00;0.30;100911.00;;;;4890355;28;86445;-65
2022/03/20 01:17:29;;;;;;;12.05;7.47;;;0.90;79.10;0.20;100914.00;;;;4894314;28;87640;-65
2022/03/20 01:19:55;;;;;;;10.60;7.85;;;0.80;79.60;0.20;100910.00;;;;4876350;28;87485;-65
2022/03/20 01:22:22;;;;;;;12.13;7.55;;;0.80;80.20;0.20;100915.00;;;;4895966;28;88903;-61
2022/03/20 01:24:48;;;;;;;11.60;7.82;;;0.80;80.10;0.20;100919.00;;;;4892940;28;87065;-60
2022/03/20 01:27:15;;;;;;;11.27;7.13;;;0.80;80.20;0.10;100925.00;;;;4873988;28;88298;-60
2022/03/20 01:29:41;;;;;;;11.27;7.82;;;0.80;80.70;0.20;100922.00;;;;4891163;28;87401;-60
2022/03/20 01:32:09;;;;;;;12.27;8.07;;;0.80;80.80;0.10;100917.00;;;;4896599;28;87306;-62
2022/03/20 01:34:35;;;;;;;10.27;7.30;;;0.80;81.50;0.10;100911.00;;;;4895596;28;87181;-61
2022/03/20 01:37:02;;;;;;;11.10;7.60;;;0.70;81.40;0.00;100918.00;;;;4894148;28;87751;-61
2022/03/20 01:39:28;;;;;;;10.43;7.53;;;0.60;81.60;0.00;100928.00;;;;4892456;28;90644;-61
2022/03/20 01:41:55;;;;;;;11.82;7.72;;;0.60;81.90;0.00;100911.00;;;;4874260;28;87160;-64
2022/03/20 01:44:30;;;;;;;12.23;7.78;;;0.60;82.30;0.00;100909.00;;;;4890139;28;87066;-65
2022/03/20 01:46:57;;;;;;;11.85;8.10;;;0.60;82.80;-0.10;100911.00;;;;4892805;28;88513;-66
2022/03/20 01:49:23;;;;;;;13.07;8.15;;;0.50;83.10;-0.10;100909.00;;;;4879516;28;89538;-66
2022/03/20 01:54:34;;;;;;;14.30;8.10;;;0.50;83.50;-0.10;100905.00;;;;4889090;28;87202;-66
2022/03/20 01:57:01;;;;;;;11.95;7.97;;;0.50;83.60;-0.10;100900.00;;;;4891348;28;87701;-65
2022/03/20 01:59:27;;;;;;;11.52;8.25;;;0.50;83.90;-0.20;100895.00;;;;4889382;28;87336;-66
2022/03/20 02:01:53;;;;;;;11.38;8.02;;;0.40;84.00;-0.30;100887.00;;;;4892355;28;88597;-65
2022/03/20 02:04:19;;;;;;;11.07;8.07;;;0.30;84.50;-0.30;100891.00;;;;4893151;28;86529;-66
2022/03/20 02:06:47;;;;;;;12.07;7.95;;;0.40;84.60;-0.30;100897.00;;;;4880396;28;90248;-66
2022/03/20 02:09:13;;;;;;;11.30;7.70;;;0.30;84.70;-0.30;100880.00;;;;4890215;28;87171;-65
2022/03/20 02:11:42;;;;;;;11.60;7.90;;;0.30;85.20;-0.50;100882.00;;;;4886803;28;88155;-65
2022/03/20 02:14:10;;;;;;;15.77;8.65;;;0.20;85.50;-0.40;100888.00;;;;4872670;28;88081;-65
2022/03/20 02:16:39;;;;;;;12.07;7.88;;;0.20;86.10;-0.50;100887.00;;;;4887600;28;87831;-67
2022/03/20 02:19:15;;;;;;;11.60;8.13;;;0.20;86.20;-0.50;100880.00;;;;4871399;28;89752;-67
2022/03/20 02:21:47;;;;;;;12.88;8.48;;;0.10;86.30;-0.60;100884.00;;;;4889785;28;87360;-66
2022/03/20 02:24:40;;;;;;;11.88;8.68;;;0.00;86.90;-0.60;100880.00;;;;4888190;28;87138;-60
2022/03/20 02:27:09;;;;;;;13.48;8.35;;;0.00;87.50;-0.70;100881.00;;;;4886066;28;87651;-60
2022/03/20 02:29:36;;;;;;;14.00;8.10;;;-0.10;87.80;-0.80;100886.00;;;;4887088;28;87397;-61
2022/03/20 02:32:05;;;;;;;12.63;8.32;;;-0.20;88.10;-0.90;100864.00;;;;4860272;28;87776;-61
2022/03/20 02:34:32;;;;;;;16.42;8.65;;;-0.20;88.20;-0.90;100859.00;;;;4892732;28;87197;-61
2022/03/20 02:37:00;;;;;;;14.02;8.05;;;-0.30;88.10;-1.00;100864.00;;;;4873637;28;88735;-61
2022/03/20 02:39:28;;;;;;;13.60;8.65;;;-0.40;88.70;-1.10;100870.00;;;;4886341;28;88209;-61
2022/03/20 02:41:57;;;;;;;12.93;8.25;;;-0.40;88.60;-1.10;100862.00;;;;4873320;28;87214;-60
2022/03/20 02:45:04;;;;;;;11.90;8.35;;;-0.40;88.90;-1.10;100862.00;;;;4884602;28;86914;-61
2022/03/20 02:47:42;;;;;;;12.73;8.48;;;-0.40;89.10;-1.20;100873.00;;;;4886464;28;88648;-60
2022/03/20 02:50:34;;;;;;;12.27;9.15;;;-0.50;89.50;-1.10;100865.00;;;;4886562;28;87374;-60
2022/03/20 02:53:02;;;;;;;;;;;-0.50;89.80;-1.20;100866.00;;;;4889889;28;87535;-60
2022/03/20 02:55:35;;;;;;;12.75;8.57;;;-0.40;90.20;-1.20;100862.00;;;;4890541;28;86377;-60
2022/03/20 02:58:05;;;;;;;13.90;8.60;;;-0.40;90.30;-1.10;100859.00;;;;4887097;28;87102;-60
2022/03/20 03:00:33;;;;;;;14.10;8.63;;;-0.40;90.50;-1.10;100864.00;;;;4885983;28;89526;-65
2022/03/20 03:03:02;;;;;;;14.57;9.13;;;-0.40;90.60;-1.10;100865.00;;;;4888953;28;89144;-65
2022/03/20 03:05:31;;;;;;;15.52;9.40;;;-0.40;90.80;-1.10;100859.00;;;;4884533;28;87548;-65
2022/03/20 03:10:57;;;;;;;12.18;8.60;;;-0.40;90.90;-1.10;100855.00;;;;4885375;28;87536;-64
2022/03/20 03:13:34;;;;;;;;;;;-0.40;90.90;-1.20;100857.00;;;;4887192;28;87852;-65
2022/03/20 03:16:05;;;;;;;14.30;9.45;;;-0.50;91.00;-1.10;100857.00;;;;4883436;28;88079;-65
2022/03/20 03:18:32;;;;;;;13.93;8.70;;;-0.50;91.00;-1.20;100860.00;;;;4887156;28;86991;-64
2022/03/20 03:20:59;;;;;;;13.63;8.13;;;-0.40;91.40;-1.10;100857.00;;;;4887509;28;87905;-64
2022/03/20 03:23:26;;;;;;;10.48;8.48;;;-0.40;91.40;-1.20;100853.00;;;;4887370;28;87504;-65
2022/03/20 03:25:54;;;;;;;15.20;9.32;;;-0.50;91.40;-1.20;100859.00;;;;4887811;28;87057;-65
2022/03/20 03:28:20;;;;;;;13.38;8.63;;;-0.50;91.60;-1.10;100854.00;;;;4885953;28;89618;-65
2022/03/20 03:30:48;;;;;;;14.57;9.70;;;-0.40;91.50;-1.10;100857.00;;;;4883829;28;88152;-64
2022/03/20 03:33:18;;;;;;;14.57;8.90;;;-0.40;91.40;-1.10;100843.00;;;;4872769;28;87243;-64
2022/03/20 03:35:51;;;;;;;13.05;9.48;;;-0.40;91.60;-1.10;100844.00;;;;4892535;28;87025;-65
2022/03/20 03:38:20;;;;;;;11.70;8.88;;;-0.40;91.70;-1.10;100847.00;;;;4888828;28;87645;-64
2022/03/20 03:40:49;;;;;;;19.00;9.30;;;-0.40;91.80;-1.10;100850.00;;;;4884260;28;88354;-64
2022/03/20 03:43:18;;;;;;;17.85;9.70;;;-0.50;91.40;-1.00;100845.00;;;;4885295;28;87536;-64
2022/03/20 03:45:46;;;;;;;13.23;9.30;;;-0.40;91.40;-0.80;100847.00;;;;4873145;28;86713;-64
2022/03/20 03:48:13;;;;;;;15.13;10.00;;;-0.40;91.40;-0.60;100852.00;;;;4888797;28;87673;-65
2022/03/20 03:50:42;;;;;;;13.05;9.50;;;-0.30;91.20;-0.50;100848.00;;;;4887136;28;88100;-64
2022/03/20 03:53:11;;;;;;;17.02;10.07;;;-0.20;91.40;-0.30;100837.00;;;;4888952;28;88274;-64
2022/03/20 03:55:44;;;;;;;18.17;10.52;;;-0.10;91.00;-0.20;100839.00;;;;4882422;28;87389;-65
2022/03/20 03:58:14;;;;;;;13.82;10.55;;;-0.10;91.30;0.00;100829.00;;;;4886106;28;87737;-64
2022/03/20 04:00:43;;;;;;;17.13;12.17;;;0.00;90.80;0.10;100820.00;;;;4889087;28;87669;-64
2022/03/20 04:03:09;;;;;;;22.60;11.73;;;0.10;90.60;0.20;100829.00;;;;4891318;28;87099;-64
2022/03/20 04:05:36;;;;;;;14.10;11.35;;;0.10;90.30;0.30;100824.00;;;;4890370;28;87459;-66
2022/03/20 04:08:06;;;;;;;20.05;12.93;;;0.20;90.30;0.40;100826.00;;;;4892862;28;87695;-65
2022/03/20 04:10:32;;;;;;;16.55;13.55;;;0.20;90.40;0.60;100822.00;;;;4889916;28;87522;-65
2022/03/20 04:12:58;;;;;;;19.38;13.88;;;0.30;90.70;0.70;100822.00;;;;4891023;28;87271;-64
2022/03/20 04:15:25;;;;;;;24.17;14.52;;;0.50;90.20;0.90;100838.00;;;;4888923;28;87255;-64
2022/03/20 04:17:54;;;;;;;22.55;14.48;;;0.50;90.20;1.00;100825.00;;;;4890197;28;88737;-66
2022/03/20 04:20:21;;;;;;;21.85;15.18;;;0.60;90.10;1.00;100823.00;;;;4891283;28;88277;-65
2022/03/20 04:25:41;;;;;;;19.70;14.60;;;0.70;90.20;1.30;100823.00;;;;4887372;28;87313;-65
2022/03/20 04:28:08;;;;;;;21.10;13.93;;;0.70;89.90;1.20;100820.00;;;;4873008;28;87913;-66
2022/03/20 04:30:35;;;;;;;17.63;12.95;;;0.70;89.90;1.20;100822.00;;;;4887087;28;87987;-66
2022/03/20 04:33:01;;;;;;;17.92;12.52;;;0.80;90.00;1.40;100813.00;;;;4886900;28;88785;-66
2022/03/20 04:35:28;;;;;;;18.33;12.93;;;0.80;90.10;1.50;100818.00;;;;4871836;28;86526;-65
2022/03/20 04:37:56;;;;;;;19.90;12.65;;;0.90;90.10;1.70;100802.00;;;;4892363;28;87768;-65
2022/03/20 04:40:26;;;;;;;19.75;12.27;;;1.00;90.20;1.70;100814.00;;;;4889100;28;87857;-66
2022/03/20 04:42:53;;;;;;;18.88;13.18;;;1.00;90.00;1.70;100812.00;;;;4888744;28;88674;-66
2022/03/20 04:45:21;;;;;;;21.63;13.13;;;1.00;90.00;1.80;100814.00;;;;4885606;28;87064;-66
2022/03/20 04:59:02;;;;;;;22.38;12.43;;;1.40;90.40;2.30;100817.00;;;;4886062;28;87771;-66
2022/03/20 05:01:28;;;;;;;22.02;11.35;;;1.40;90.30;2.20;100812.00;;;;4886815;28;87409;-66
2022/03/20 05:03:55;;;;;;;18.98;11.60;;;1.30;91.00;2.30;100820.00;;;;4867479;28;87106;-65
2022/03/20 05:06:21;;;;;;;19.88;11.70;;;1.40;91.30;2.10;100810.00;;;;4855714;28;87162;-65
2022/03/20 05:08:48;;;;;;;19.63;11.43;;;1.30;91.50;2.00;100800.00;;;;4886414;28;88581;-64
2022/03/20 05:14:19;;;;;;;16.58;10.45;;;1.40;92.00;1.80;100801.00;;;;4813723;29;87195;-66
2022/03/20 05:16:45;;;;;;;17.10;11.95;;;1.40;92.30;1.50;100814.00;;;;4833504;29;87259;-65
2022/03/20 05:19:11;;;;;;;15.63;10.48;;;1.40;92.10;1.20;100802.00;;;;4842468;28;89820;-66
2022/03/20 05:21:37;;;;;;;16.85;10.20;;;1.40;92.70;1.10;100797.00;;;;4867781;28;88514;-65
2022/03/20 05:24:07;;;;;;;17.05;10.45;;;1.30;93.00;1.00;100803.00;;;;4888591;28;88275;-65
2022/03/20 05:26:33;;;;;;;15.32;9.93;;;1.30;92.90;1.00;100806.00;;;;4859913;28;86523;-64
2022/03/20 05:29:00;;;;;;;14.38;10.00;;;1.40;93.50;1.00;100800.00;;;;4889581;28;87668;-65
2022/03/20 05:31:26;;;;;;;13.32;8.68;;;1.40;93.70;1.10;100795.00;;;;4888815;28;87476;-65
2022/03/20 05:33:55;;;;;;;13.43;10.45;;;1.50;93.60;1.10;100791.00;;;;4858777;28;88020;-66
2022/03/20 05:36:22;;;;;;;15.27;10.18;;;1.50;93.60;1.20;100790.00;;;;4889050;28;87121;-66
2022/03/20 05:38:48;;;;;;;13.63;9.68;;;1.60;93.40;1.20;100784.00;;;;4885737;28;87834;-65
2022/03/20 05:43:59;;;;;;;22.60;10.82;;;1.70;93.30;1.30;100779.00;;;;4886458;28;87068;-66
2022/03/20 05:46:28;;;;;;;18.98;10.70;;;1.70;93.40;1.40;100773.00;;;;4884550;28;88975;-65
2022/03/20 05:48:54;;;;;;;13.82;9.55;;;1.80;93.70;1.40;100768.00;;;;4884323;28;89248;-66
2022/03/20 05:51:20;;;;;;;15.25;10.90;;;1.90;93.70;1.50;100780.00;;;;4888171;28;87426;-67
2022/03/20 05:53:46;;;;;;;14.18;9.82;;;1.90;93.40;1.60;100772.00;;;;4886750;28;87248;-66
2022/03/20 05:58:58;;;;;;;17.33;10.63;;;2.00;93.60;1.80;100763.00;;;;4884237;28;88724;-66
2022/03/20 06:01:26;;;;;;;14.57;10.10;;;2.10;93.50;1.80;100755.00;;;;4884174;28;88303;-67
2022/03/20 06:03:53;;;;;;;18.65;10.32;;;2.20;93.50;1.90;100756.00;;;;4884698;28;86965;-67
2022/03/20 06:06:19;;;;;;;14.95;10.50;;;2.30;93.50;1.90;100758.00;;;;4886994;28;86985;-67
2022/03/20 06:08:45;;;;;;;18.58;9.63;;;2.30;93.50;2.00;100757.00;;;;4884065;28;87665;-68
2022/03/20 06:11:18;;;;;;;18.00;9.63;;;2.40;93.60;2.10;100750.00;;;;4869793;28;88461;-67
2022/03/20 06:13:45;;;;;;;14.63;10.25;;;2.40;93.60;2.20;100752.00;;;;4858082;28;87224;-67
2022/03/20 06:16:12;;;;;;;19.33;10.73;;;2.50;93.60;2.30;100738.00;;;;4886916;28;86424;-67
2022/03/20 06:18:42;;;;;;;13.05;9.00;;;2.70;93.50;2.40;100742.00;;;;4885379;28;88089;-67
2022/03/20 06:21:11;;;;;;;21.27;10.80;;;2.70;93.70;2.50;100738.00;;;;4887118;28;87773;-66
2022/03/20 06:23:40;;;;;;;15.02;10.45;;;2.80;93.60;2.50;100738.00;;;;4871373;28;88029;-67
2022/03/20 06:26:09;;;;;;;15.73;10.38;;;2.90;93.50;2.60;100744.00;;;;4866573;28;87202;-68
2022/03/20 06:28:46;;;;;;;13.15;8.93;;;2.90;93.40;2.70;100750.00;;;;4863172;28;87645;-68
2022/03/20 06:31:14;;;;;;;13.38;9.60;;;3.00;93.40;2.80;100730.00;;;;4888380;28;87283;-66
2022/03/20 06:33:40;;;;;;;10.98;7.60;;;3.10;93.40;2.80;100724.00;;;;4867930;28;87069;-68
2022/03/20 06:36:09;;;;;;;12.77;8.18;;;3.20;93.40;2.90;100737.00;;;;4885804;28;87011;-67
2022/03/20 06:38:37;;;;;;;12.02;7.65;;;3.20;93.30;2.90;100736.00;;;;4873031;28;88666;-67
2022/03/20 06:41:04;;;;;;;16.02;8.80;;;3.20;93.30;3.00;100733.00;;;;4864342;28;88027;-67
2022/03/20 06:43:31;;;;;;;12.32;8.10;;;3.30;93.30;3.10;100726.00;;;;4886361;28;88309;-67
2022/03/20 06:45:57;;;;;;;13.95;8.02;;;3.40;93.10;3.20;100728.00;;;;4887275;28;87013;-68
2022/03/20 06:48:24;;;;;;;16.73;8.55;;;3.50;93.10;3.30;100735.00;;;;4883266;28;88902;-68
2022/03/20 06:50:51;;;;;;;15.45;8.00;;;3.60;92.90;3.30;100722.00;;;;4885009;28;88071;-68
2022/03/20 06:53:18;;;;;;;10.93;7.22;;;3.60;92.80;3.30;100721.00;;;;4868942;28;87373;-68
2022/03/20 06:55:45;;;;;;;9.52;6.90;;;3.60;92.70;3.30;100732.00;;;;4884020;28;87352;-66
2022/03/20 06:58:17;;;;;;;14.63;7.25;;;3.60;92.80;3.30;100723.00;;;;4884150;28;87404;-67
2022/03/20 07:00:45;;;;;;;16.45;7.65;;;3.60;92.80;3.30;100705.00;;;;4890292;28;87296;-68
2022/03/20 07:03:11;;;;;;;11.07;6.88;;;3.60;92.80;3.30;100714.00;;;;4883597;28;87024;-67
2022/03/20 07:05:38;;;;;;;13.45;6.82;;;3.60;92.70;3.40;100710.00;;;;4887564;28;86644;-66
2022/03/20 07:08:07;;;;;;;18.58;7.30;;;3.60;92.60;3.40;100710.00;;;;4872063;28;88095;-66
2022/03/20 07:10:34;;;;;;;11.18;7.10;;;3.70;92.80;3.50;100724.00;;;;4878317;28;87372;-67
2022/03/20 07:15:48;;;;;;;13.35;7.85;;;3.90;92.70;3.70;100705.00;;;;4878771;28;87484;-67
2022/03/20 07:18:19;;;;;;;11.10;7.22;;;4.00;92.60;3.80;100699.00;;;;4865894;28;88808;-67
2022/03/20 07:20:48;;;;;;;11.52;7.75;;;4.10;93.00;3.80;100723.00;;;;4883945;28;87137;-67
2022/03/20 07:23:14;;;;;;;12.80;8.32;;;4.00;92.90;3.80;100724.00;;;;4885934;28;87448;-68
2022/03/20 07:31:14;;;;;;;9.88;7.45;;;4.20;93.60;4.10;100703.00;;;;4888821;28;88325;-67
2022/03/20 07:33:41;;;;;;;16.90;7.25;;;4.30;93.50;4.10;100698.00;;;;4886251;28;88105;-68
2022/03/20 07:36:08;;;;;;;11.30;7.10;;;4.30;93.30;4.00;100707.00;;;;4885684;28;87459;-68
2022/03/20 07:38:37;;;;;;;14.23;7.32;;;4.30;93.50;4.10;100699.00;;;;4889160;28;88816;-67
2022/03/20 07:41:03;;;;;;;17.42;9.07;;;4.30;93.50;4.20;100691.00;;;;4883280;28;88306;-67
2022/03/20 07:43:30;;;;;;;13.38;7.80;;;4.40;93.50;4.20;100701.00;;;;4884553;28;86928;-67
2022/03/20 07:45:56;;;;;;;16.95;8.00;;;4.50;93.30;4.30;100691.00;;;;4886926;28;87273;-67
2022/03/20 07:48:23;;;;;;;12.82;7.30;;;4.60;93.20;4.40;100689.00;;;;4882916;28;87744;-67
2022/03/20 07:50:50;;;;;;;15.10;8.05;;;4.60;92.90;4.40;100675.00;;;;4890189;28;87367;-67
2022/03/20 07:53:18;;;;;;;16.63;8.15;;;4.70;92.60;4.40;100689.00;;;;4885839;28;87360;-67
2022/03/20 07:55:47;;;;;;;10.52;6.90;;;4.70;92.60;4.50;100695.00;;;;4866974;28;86856;-67
2022/03/20 07:58:19;;;;;;;10.23;6.47;;;4.70;93.10;4.50;100684.00;;;;4883514;28;88459;-67
2022/03/20 08:00:47;;;;;;;17.30;7.75;;;4.80;92.50;4.60;100683.00;;;;4880400;28;87959;-67
2022/03/20 08:03:13;;;;;;;14.90;8.07;;;4.90;92.40;4.70;100685.00;;;;4869176;28;89890;-67
2022/03/20 08:05:39;;;;;;;12.02;7.30;;;4.90;92.10;4.80;100687.00;;;;4885873;28;87446;-66
2022/03/20 08:08:07;;;;;;;15.95;8.13;;;5.00;91.80;4.90;100673.00;;;;4888769;28;87664;-68
2022/03/20 08:10:33;;;;;;;10.48;6.82;;;5.10;91.70;4.90;100672.00;;;;4859604;28;88410;-67
2022/03/20 08:12:59;;;;;;;16.25;7.80;;;5.20;91.60;5.00;100679.00;;;;4887021;28;87047;-66
2022/03/20 08:15:26;;;;;;;12.02;6.60;;;5.20;91.60;5.10;100665.00;;;;4886376;28;87451;-68
2022/03/20 08:17:52;;;;;;;13.65;6.70;;;5.30;91.40;5.10;100664.00;;;;4882566;28;87717;-69
2022/03/20 08:20:19;;;;;;;11.07;6.63;;;5.40;91.50;5.20;100652.00;;;;4883117;28;87424;-69
2022/03/20 08:22:45;;;;;;;10.88;6.10;;;5.40;91.10;5.20;100651.00;;;;4880547;28;87216;-69
2022/03/20 08:25:11;;;;;;;13.15;6.55;;;5.40;90.80;5.30;100665.00;;;;4888542;28;87391;-67
2022/03/20 08:27:50;;;;;;;10.75;5.65;;;5.50;90.70;5.30;100650.00;;;;4893764;28;88741;-67
2022/03/20 08:30:18;;;;;;;10.45;6.07;;;5.50;90.10;5.40;100647.00;;;;4882833;28;88368;-69
2022/03/20 08:32:48;;;;;;;12.05;6.30;;;5.60;90.30;5.50;100641.00;;;;4883774;28;87482;-69
2022/03/20 08:35:19;;;;;;;16.48;6.90;;;5.70;90.50;5.50;100639.00;;;;4883551;28;86923;-69
2022/03/20 08:37:47;;;;;;;11.23;6.30;;;5.70;90.20;5.50;100633.00;;;;4881009;28;88783;-67
2022/03/20 08:40:17;;;;;;;10.90;6.10;;;5.80;90.30;5.60;100625.00;;;;4882081;28;87432;-68
2022/03/20 08:42:54;;;;;;;10.60;5.80;;;5.80;89.70;5.60;100630.00;;;;4885469;28;87970;-66
2022/03/20 08:45:29;;;;;;;10.52;5.72;;;5.80;89.50;5.60;100617.00;;;;4896725;28;86350;-68
2022/03/20 08:47:56;;;;;;;12.10;6.13;;;5.80;89.60;5.70;100619.00;;;;4892849;28;88715;-69
2022/03/20 08:50:22;;;;;;;12.55;6.07;;;5.90;89.40;5.70;100613.00;;;;4896894;28;87753;-69
2022/03/20 08:52:48;;;;;;;13.68;6.53;;;5.90;89.00;5.80;100624.00;;;;4890760;28;87917;-69
2022/03/20 08:55:16;;;;;;;10.55;5.22;;;5.90;89.30;5.80;100621.00;;;;4902339;28;87388;-68
2022/03/20 08:57:47;;;;;;;11.27;5.18;;;6.00;88.50;5.90;100614.00;;;;4895353;28;87870;-68
2022/03/20 09:00:16;;;;;;;;;;;6.10;88.50;5.90;100604.00;;;;4896088;28;87147;-68
2022/03/20 09:02:44;;;;;;;7.50;4.25;;;6.10;87.70;6.00;100598.00;;;;4896183;28;88086;-68
2022/03/20 09:05:12;;;;;;;9.25;4.38;;;6.20;86.70;6.00;100597.00;;;;4885090;28;87099;-70
2022/03/20 09:07:40;;;;;;;7.63;4.10;;;6.10;86.00;6.10;100602.00;;;;4891589;28;87936;-68
2022/03/20 09:10:09;;;;;;;10.13;4.47;;;6.20;85.90;6.10;100597.00;;;;4896837;28;88122;-68
2022/03/20 09:12:37;;;;;;;8.93;4.25;;;6.30;85.50;6.10;100604.00;;;;4868859;28;87080;-69
2022/03/20 09:15:14;;;;;;;10.38;4.45;;;6.30;85.40;6.10;100590.00;;;;4889210;28;87228;-69
2022/03/20 09:20:32;;;;;;;6.78;4.10;;;6.20;83.80;6.10;100590.00;;;;4893227;28;88502;-62
2022/03/20 09:22:58;;;;;;;7.78;4.03;;;6.30;83.60;6.20;100591.00;;;;4887285;28;86877;-60
2022/03/20 09:25:24;;;;;;;8.68;3.90;;;6.40;83.00;6.40;100591.00;;;;4891308;28;86928;-61
2022/03/20 09:27:52;;;;;;;10.80;4.20;;;6.60;83.00;6.50;100575.00;;;;4896406;28;87884;-61
2022/03/20 09:30:21;;;;;;;9.82;4.72;;;6.70;81.80;6.60;100576.00;;;;4898973;28;87470;-62
2022/03/20 09:32:48;;;;;;;9.98;4.57;;;6.80;81.40;6.70;100578.00;;;;4892353;28;87142;-68
2022/03/20 09:35:18;;;;;;;10.50;4.05;;;6.90;80.90;6.80;100570.00;;;;4884760;28;86621;-68
2022/03/20 09:37:44;;;;;;;14.27;4.35;;;6.90;79.50;6.80;100566.00;;;;4873490;28;88908;-68
2022/03/20 09:40:12;;;;;;;7.88;3.83;;;6.90;78.00;6.80;100560.00;;;;4884640;28;87541;-68
2022/03/20 09:42:42;;;;;;;7.00;3.17;;;7.00;76.70;6.80;100560.00;;;;4873632;28;88147;-69
2022/03/20 09:45:09;;;;;;;8.13;3.27;;;7.00;74.80;6.80;100550.00;;;;4854905;28;87506;-69
2022/03/20 09:47:41;;;;;;;7.38;3.40;;;6.90;73.50;6.80;100544.00;;;;4888734;28;88117;-60
2022/03/20 09:50:10;;;;;;;9.10;4.03;;;6.90;74.00;6.90;100555.00;;;;4890496;28;87198;-61
2022/03/20 09:52:38;;;;;;;6.03;3.60;;;7.00;74.30;6.80;100545.00;;;;4893628;28;87249;-61
2022/03/20 09:55:07;;;;;;;5.85;2.70;;;7.00;73.40;6.90;100540.00;;;;4883978;28;87105;-61
2022/03/20 09:57:33;;;;;;;8.70;3.63;;;7.00;72.30;6.90;100535.00;;;;4883133;28;87652;-60
2022/03/20 10:00:05;;;;;;;8.07;3.58;;;7.00;72.60;6.90;100537.00;;;;4889096;28;87870;-63
2022/03/20 10:02:31;;;;;;;;;;;7.00;71.90;6.90;100534.00;;;;4886479;28;87562;-63
2022/03/20 10:05:01;;;;;;;5.22;2.88;;;7.00;68.60;6.90;100523.00;;;;4888465;28;87553;-62
2022/03/20 10:07:36;;;;;;;7.35;3.20;;;7.10;69.10;7.00;100521.00;;;;4868279;28;88537;-64
2022/03/20 10:10:25;;;;;;;7.85;3.05;;;7.10;70.30;6.90;100526.00;;;;4872142;28;88406;-62
2022/03/20 10:12:56;;;;;;;6.03;2.67;;;7.00;69.40;6.90;100506.00;;;;4864699;28;87823;-69
2022/03/20 10:15:44;;;;;;;5.68;3.40;;;7.10;69.00;7.00;100510.00;;;;4873053;28;87106;-68
2022/03/20 10:18:17;;;;;;;5.72;2.70;;;7.10;68.90;7.10;100496.00;;;;4886441;28;88224;-68
2022/03/20 10:20:51;;;;;;;5.90;2.65;;;7.20;67.40;7.10;100494.00;;;;4869359;28;87228;-67
2022/03/20 10:23:38;;;;;;;6.93;2.58;;;7.20;65.10;7.20;100489.00;;;;4885811;28;87218;-69
2022/03/20 10:26:17;;;;;;;5.80;2.97;;;7.30;65.20;7.30;100482.00;;;;4885075;28;86601;-68
2022/03/20 10:28:50;;;;;;;7.28;2.67;;;7.40;62.40;7.40;100480.00;;;;4894025;28;87848;-68
2022/03/20 10:31:20;;;;;;;8.43;2.55;;;7.50;63.60;7.40;100487.00;;;;4868884;28;88713;-70
2022/03/20 10:34:07;;;;;;;4.80;2.60;;;7.60;63.10;7.50;100476.00;;;;4870357;28;88116;-66
2022/03/20 10:36:34;;;;;;;5.97;2.35;;;7.60;62.60;7.50;100466.00;;;;4893031;28;87911;-68
2022/03/20 10:39:01;;;;;;;4.28;2.30;;;7.60;62.40;7.60;100468.00;;;;4875724;28;87745;-61
2022/03/20 10:41:35;;;;;;;6.32;2.40;;;7.70;62.70;7.70;100457.00;;;;4886621;28;87827;-62
2022/03/20 10:44:13;;;;;;;5.30;2.40;;;7.80;61.20;7.70;100470.00;;;;4865352;28;87245;-62
2022/03/20 10:46:39;;;;;;;6.20;3.22;;;7.80;61.10;7.90;100460.00;;;;4894209;28;87175;-64
2022/03/20 10:49:07;;;;;;;6.35;2.53;;;8.00;61.10;7.90;100456.00;;;;4868274;28;88738;-67
2022/03/20 10:51:42;;;;;;;8.43;2.35;;;8.00;60.10;7.90;100460.00;;;;4892324;28;87310;-66
2022/03/20 10:54:21;;;;;;;5.00;2.10;;;8.00;60.80;7.90;100451.00;;;;4894536;28;87000;-67
2022/03/20 10:56:56;;;;;;;5.70;2.03;;;8.00;58.90;7.90;100450.00;;;;4868854;28;87788;-66
2022/03/20 10:59:26;;;;;;;5.72;2.40;;;8.00;59.00;8.00;100441.00;;;;4890858;28;88667;-66
2022/03/20 11:01:53;;;;;;;9.40;2.38;;;8.10;59.60;8.00;100429.00;;;;4894417;28;88381;-67
2022/03/20 11:04:20;;;;;;;5.50;2.30;;;8.20;59.00;8.10;100439.00;;;;4886211;28;88079;-66
2022/03/20 11:06:50;;;;;;;6.22;2.15;;;8.20;58.10;8.10;100433.00;;;;4892006;28;87035;-66
2022/03/20 11:09:16;;;;;;;5.63;2.42;;;8.20;56.60;8.20;100415.00;;;;4886366;28;87814;-66
2022/03/20 11:11:53;;;;;;;6.00;1.98;;;8.30;57.80;8.20;100423.00;;;;4882864;28;87103;-66
2022/03/20 11:14:25;;;;;;;7.55;2.08;;;8.30;56.00;8.30;100415.00;;;;4885719;28;87155;-66
2022/03/20 11:17:04;;;;;;;3.38;1.55;;;8.40;55.40;8.30;100416.00;;;;4873633;28;86311;-66
2022/03/20 11:19:33;;;;;;;7.40;1.50;;;8.30;54.70;8.30;100397.00;;;;4881836;28;87864;-66
2022/03/20 11:22:11;;;;;;;3.70;1.80;;;8.40;53.90;8.40;100398.00;;;;4871137;28;87327;-66
2022/03/20 11:24:41;;;;;;;11.45;1.60;;;8.50;53.20;8.50;100384.00;;;;4888686;28;88062;-66
2022/03/20 11:27:11;;;;;;;6.60;1.85;;;8.50;52.20;8.50;100399.00;;;;4884640;28;87449;-66
2022/03/20 11:29:56;;;;;;;9.13;2.25;;;8.60;52.20;8.50;100394.00;;;;4861899;28;87907;-67
2022/03/20 11:32:23;;;;;;;6.82;2.22;;;8.60;51.50;8.50;100403.00;;;;4866463;28;87283;-67
2022/03/20 11:34:51;;;;;;;4.60;1.52;;;8.60;52.20;8.60;100396.00;;;;4866408;28;87410;-66
2022/03/20 11:37:17;;;;;;;3.38;1.60;;;8.60;53.00;8.60;100387.00;;;;4871970;28;87037;-66
2022/03/20 11:40:13;;;;;;;3.55;1.38;;;8.70;51.10;8.60;100388.00;;;;4869176;28;87905;-65